Time;durP1;ratioP1;P1;durP2;ratioP2;P2;SDS_P1;SDS_P2;PMS_P1;PMS_P2;Temp;Humidity;BMP_temperature;BMP_pressure;BME280_temperature;BME280_humidity;BME280_pressure;Samples;Min_cycle;Max_cycle;Signal;HPM_P1;HPM_P2
2021/08/15 00:00:30;;;;;;;23.00;16.20;;;;;;;;;;5073151;28;20452;-79
2021/08/15 00:02:57;;;;;;;24.80;14.47;;;;;;;;;;5072730;28;20550;-79
2021/08/15 00:05:24;;;;;;;26.53;15.60;;;;;;;;;;5073158;28;20452;-79
2021/08/15 00:07:54;;;;;;;19.20;13.83;;;;;;;;;;5073816;28;20444;-80
2021/08/15 00:10:21;;;;;;;20.80;14.67;;;;;;;;;;5074120;28;20460;-79
2021/08/15 00:12:48;;;;;;;21.77;14.23;;;;;;;;;;5073744;28;20447;-80
2021/08/15 00:15:16;;;;;;;19.63;14.73;;;;;;;;;;5073729;28;20525;-79
2021/08/15 00:17:44;;;;;;;22.73;15.47;;;;;;;;;;5073282;28;20493;-80
2021/08/15 00:20:12;;;;;;;22.97;13.50;;;;;;;;;;5072110;28;20535;-80
2021/08/15 00:22:39;;;;;;;19.03;12.80;;;;;;;;;;5073074;28;20436;-80
2021/08/15 00:25:09;;;;;;;20.20;14.90;;;;;;;;;;5073610;28;20479;-80
2021/08/15 00:27:36;;;;;;;23.13;16.17;;;;;;;;;;5073829;28;20447;-80
2021/08/15 00:30:04;;;;;;;23.00;15.37;;;;;;;;;;5073849;28;20528;-80
2021/08/15 00:32:32;;;;;;;25.13;15.20;;;;;;;;;;5073368;28;20447;-80
2021/08/15 00:34:59;;;;;;;22.50;14.60;;;;;;;;;;5073587;28;20435;-80
2021/08/15 00:37:26;;;;;;;21.07;14.90;;;;;;;;;;5073116;28;20472;-80
2021/08/15 00:39:53;;;;;;;18.83;14.00;;;;;;;;;;5072856;28;20445;-80
2021/08/15 00:42:22;;;;;;;21.13;13.80;;;;;;;;;;5073091;28;20952;-80
2021/08/15 00:44:49;;;;;;;19.83;14.13;;;;;;;;;;5073384;28;20445;-80
2021/08/15 00:47:16;;;;;;;21.13;14.10;;;;;;;;;;5073042;28;20453;-80
2021/08/15 00:49:43;;;;;;;20.60;13.90;;;;;;;;;;5073387;28;20443;-80
2021/08/15 00:52:11;;;;;;;19.67;13.83;;;;;;;;;;5071571;28;20445;-80
2021/08/15 00:54:38;;;;;;;20.73;14.77;;;;;;;;;;5073043;28;20443;-81
2021/08/15 00:57:07;;;;;;;22.03;15.07;;;;;;;;;;5073208;28;20447;-80
2021/08/15 00:59:38;;;;;;;24.97;15.17;;;;;;;;;;5072994;28;20970;-80
2021/08/15 01:02:07;;;;;;;24.13;14.23;;;;;;;;;;5073220;28;20433;-80
2021/08/15 01:04:34;;;;;;;20.83;14.67;;;;;;;;;;5072911;28;20540;-80
2021/08/15 01:07:02;;;;;;;23.17;14.50;;;;;;;;;;5072890;28;21000;-80
2021/08/15 01:09:30;;;;;;;17.50;13.40;;;;;;;;;;5075873;28;20451;-80
2021/08/15 01:11:57;;;;;;;32.80;13.93;;;;;;;;;;5076975;28;20437;-80
2021/08/15 01:14:24;;;;;;;19.20;14.27;;;;;;;;;;5076744;28;20441;-80
2021/08/15 01:16:52;;;;;;;24.90;15.40;;;;;;;;;;5077164;28;20863;-80
2021/08/15 01:19:20;;;;;;;22.47;14.70;;;;;;;;;;5077492;28;20490;-80
2021/08/15 01:21:48;;;;;;;21.03;14.60;;;;;;;;;;5076150;28;20934;-80
2021/08/15 01:24:15;;;;;;;20.27;14.80;;;;;;;;;;5074912;28;20443;-80
2021/08/15 01:26:43;;;;;;;27.10;15.87;;;;;;;;;;5076806;28;20445;-80
2021/08/15 01:29:12;;;;;;;23.57;14.60;;;;;;;;;;5076861;28;20440;-80
2021/08/15 01:31:39;;;;;;;24.13;16.20;;;;;;;;;;5076238;28;20448;-81
2021/08/15 01:34:06;;;;;;;23.13;15.60;;;;;;;;;;5076702;28;20445;-80
2021/08/15 01:36:34;;;;;;;22.63;15.83;;;;;;;;;;5076611;28;20447;-80
2021/08/15 01:39:01;;;;;;;19.27;14.80;;;;;;;;;;5077083;28;20476;-80
2021/08/15 01:41:28;;;;;;;29.20;16.90;;;;;;;;;;5076175;28;20444;-80
2021/08/15 01:43:56;;;;;;;24.07;16.73;;;;;;;;;;5075945;28;20454;-80
2021/08/15 01:46:26;;;;;;;27.30;17.53;;;;;;;;;;5076174;28;20510;-80
2021/08/15 01:48:53;;;;;;;25.23;17.67;;;;;;;;;;5076062;28;20459;-80
2021/08/15 01:51:20;;;;;;;25.40;17.00;;;;;;;;;;5074883;28;20456;-80
2021/08/15 01:53:49;;;;;;;26.23;17.70;;;;;;;;;;5075785;28;20437;-81
2021/08/15 01:56:16;;;;;;;26.83;16.80;;;;;;;;;;5076303;28;20801;-80
2021/08/15 01:58:43;;;;;;;29.80;18.83;;;;;;;;;;5076144;28;20480;-79
2021/08/15 02:01:10;;;;;;;29.30;18.83;;;;;;;;;;5075321;28;20448;-79
2021/08/15 02:03:39;;;;;;;27.47;18.73;;;;;;;;;;5074947;28;20432;-80
2021/08/15 02:06:06;;;;;;;28.10;19.40;;;;;;;;;;5075075;28;20868;-80
2021/08/15 02:08:33;;;;;;;31.20;20.47;;;;;;;;;;5076043;28;20444;-80
2021/08/15 02:11:01;;;;;;;25.13;18.57;;;;;;;;;;5076071;28;20441;-81
2021/08/15 02:13:28;;;;;;;29.90;19.37;;;;;;;;;;5075765;28;20437;-80
2021/08/15 02:15:55;;;;;;;29.57;19.73;;;;;;;;;;5075907;28;20455;-80
2021/08/15 02:18:22;;;;;;;25.60;18.30;;;;;;;;;;5075393;28;20963;-80
2021/08/15 02:20:51;;;;;;;28.30;19.47;;;;;;;;;;5074928;28;20450;-82
2021/08/15 02:23:18;;;;;;;29.77;18.53;;;;;;;;;;5074221;28;20451;-80
2021/08/15 02:25:45;;;;;;;27.70;19.10;;;;;;;;;;5075542;28;20467;-80
2021/08/15 02:28:12;;;;;;;29.87;19.63;;;;;;;;;;5075967;28;20448;-80
2021/08/15 02:30:40;;;;;;;26.57;19.77;;;;;;;;;;5075332;28;20442;-79
2021/08/15 02:33:07;;;;;;;35.20;20.30;;;;;;;;;;5075051;28;20440;-80
2021/08/15 02:35:34;;;;;;;26.10;18.50;;;;;;;;;;5075496;28;20792;-80
2021/08/15 02:38:03;;;;;;;30.47;19.30;;;;;;;;;;5075874;28;20487;-81
2021/08/15 02:40:30;;;;;;;28.13;21.60;;;;;;;;;;5075851;28;20451;-80
2021/08/15 02:42:57;;;;;;;30.87;21.07;;;;;;;;;;5074983;28;20441;-81
2021/08/15 02:45:26;;;;;;;38.70;22.60;;;;;;;;;;5075066;28;20453;-80
2021/08/15 02:47:53;;;;;;;30.07;21.90;;;;;;;;;;5075451;28;20452;-80
2021/08/15 02:50:21;;;;;;;27.93;21.53;;;;;;;;;;5075694;28;20452;-80
2021/08/15 02:52:48;;;;;;;31.33;21.10;;;;;;;;;;5073666;28;20443;-80
2021/08/15 02:55:17;;;;;;;30.27;20.50;;;;;;;;;;5074721;28;20802;-79
2021/08/15 02:57:44;;;;;;;28.27;20.43;;;;;;;;;;5074970;28;20441;-79
2021/08/15 03:00:12;;;;;;;35.90;21.30;;;;;;;;;;5075451;28;20499;-80
2021/08/15 03:02:40;;;;;;;36.83;21.60;;;;;;;;;;5075384;28;20443;-80
2021/08/15 03:05:08;;;;;;;29.00;21.17;;;;;;;;;;5074790;28;20937;-80
2021/08/15 03:07:35;;;;;;;31.50;22.00;;;;;;;;;;5074609;28;20440;-82
2021/08/15 03:10:02;;;;;;;30.70;21.83;;;;;;;;;;5074563;28;20929;-79
2021/08/15 03:12:31;;;;;;;29.90;20.80;;;;;;;;;;5074712;28;20440;-79
2021/08/15 03:14:58;;;;;;;39.57;22.67;;;;;;;;;;5074802;28;20450;-82
2021/08/15 03:17:25;;;;;;;30.80;22.50;;;;;;;;;;5074541;28;20444;-82
2021/08/15 03:19:52;;;;;;;31.00;21.70;;;;;;;;;;5074426;28;20465;-82
2021/08/15 03:22:20;;;;;;;33.57;21.70;;;;;;;;;;5073405;28;20441;-79
2021/08/15 03:24:48;;;;;;;32.53;21.50;;;;;;;;;;5074116;28;20447;-80
2021/08/15 03:27:15;;;;;;;31.43;23.23;;;;;;;;;;5074540;28;20533;-81
2021/08/15 03:29:43;;;;;;;32.27;21.80;;;;;;;;;;5074036;28;20446;-82
2021/08/15 03:32:10;;;;;;;32.13;22.20;;;;;;;;;;5074206;28;20440;-80
2021/08/15 03:34:38;;;;;;;35.30;23.20;;;;;;;;;;5074343;28;20491;-81
2021/08/15 03:37:05;;;;;;;37.23;23.50;;;;;;;;;;5074366;28;20447;-80
2021/08/15 03:39:32;;;;;;;31.80;25.50;;;;;;;;;;5073942;28;21013;-80
2021/08/15 03:42:00;;;;;;;33.50;22.20;;;;;;;;;;5073678;28;20930;-80
2021/08/15 03:44:28;;;;;;;35.13;22.17;;;;;;;;;;5073902;28;20590;-80
2021/08/15 03:46:56;;;;;;;35.30;24.10;;;;;;;;;;5074674;28;20790;-80
2021/08/15 03:49:24;;;;;;;40.30;23.47;;;;;;;;;;5073844;28;20463;-80
2021/08/15 03:51:52;;;;;;;33.50;23.03;;;;;;;;;;5074528;28;20441;-81
2021/08/15 03:54:20;;;;;;;32.97;22.33;;;;;;;;;;5071869;28;20449;-80
2021/08/15 03:56:48;;;;;;;32.67;22.93;;;;;;;;;;5073753;28;20942;-80
2021/08/15 03:59:16;;;;;;;34.97;22.60;;;;;;;;;;5074053;28;20482;-80
2021/08/15 04:01:43;;;;;;;31.83;23.17;;;;;;;;;;5073525;28;20447;-72
2021/08/15 04:04:11;;;;;;;42.27;24.63;;;;;;;;;;5073398;28;20925;-78
2021/08/15 04:06:39;;;;;;;30.83;23.03;;;;;;;;;;5073542;28;20444;-78
2021/08/15 04:09:06;;;;;;;34.23;24.03;;;;;;;;;;5073953;28;20445;-78
2021/08/15 04:11:33;;;;;;;36.53;23.13;;;;;;;;;;5073849;28;20818;-78
2021/08/15 04:14:01;;;;;;;32.17;23.07;;;;;;;;;;5073185;28;20437;-78
2021/08/15 04:16:28;;;;;;;29.97;21.80;;;;;;;;;;5073837;28;20437;-77
2021/08/15 04:18:56;;;;;;;32.63;23.90;;;;;;;;;;5073242;28;20489;-77
2021/08/15 04:21:25;;;;;;;34.10;23.53;;;;;;;;;;5073678;28;20451;-77
2021/08/15 04:23:52;;;;;;;32.53;23.57;;;;;;;;;;5071654;28;20459;-77
2021/08/15 04:26:19;;;;;;;47.00;24.93;;;;;;;;;;5073655;28;20437;-77
2021/08/15 04:28:46;;;;;;;39.70;24.90;;;;;;;;;;5073756;28;20451;-77
2021/08/15 04:31:14;;;;;;;34.97;23.13;;;;;;;;;;5072970;28;20455;-77
2021/08/15 04:33:41;;;;;;;30.40;23.00;;;;;;;;;;5073282;28;20929;-77
2021/08/15 04:36:08;;;;;;;36.53;23.37;;;;;;;;;;5073498;28;20441;-78
2021/08/15 04:38:37;;;;;;;35.67;25.20;;;;;;;;;;5073437;28;20442;-75
2021/08/15 04:41:04;;;;;;;33.70;24.00;;;;;;;;;;5073223;28;20448;-78
2021/08/15 04:43:32;;;;;;;33.13;23.83;;;;;;;;;;5072202;28;20452;-78
2021/08/15 04:46:00;;;;;;;39.27;24.30;;;;;;;;;;5073098;28;20940;-80
2021/08/15 04:48:27;;;;;;;33.40;24.20;;;;;;;;;;5074996;28;20481;-79
2021/08/15 04:50:54;;;;;;;35.87;23.50;;;;;;;;;;5073125;28;20913;-79
2021/08/15 04:53:21;;;;;;;35.97;24.00;;;;;;;;;;5072767;28;20432;-79
2021/08/15 04:55:50;;;;;;;36.63;24.90;;;;;;;;;;5071294;28;20531;-80
2021/08/15 04:58:17;;;;;;;32.53;24.20;;;;;;;;;;5072976;28;20444;-80
2021/08/15 05:00:44;;;;;;;38.67;25.80;;;;;;;;;;5072908;28;20483;-79
2021/08/15 05:03:11;;;;;;;39.40;24.90;;;;;;;;;;5072932;28;20445;-79
2021/08/15 05:05:40;;;;;;;37.10;24.30;;;;;;;;;;5072610;28;20441;-79
2021/08/15 05:08:07;;;;;;;44.30;24.00;;;;;;;;;;5072546;28;20491;-78
2021/08/15 05:10:34;;;;;;;31.30;21.90;;;;;;;;;;5073445;28;20451;-78
2021/08/15 05:13:03;;;;;;;39.43;22.70;;;;;;;;;;5073452;28;20444;-78
2021/08/15 05:15:30;;;;;;;36.07;25.70;;;;;;;;;;5072897;28;20558;-78
2021/08/15 05:17:57;;;;;;;34.43;23.70;;;;;;;;;;5072987;28;20480;-78
2021/08/15 05:20:25;;;;;;;40.67;25.03;;;;;;;;;;5072625;28;20534;-77
2021/08/15 05:22:52;;;;;;;35.60;24.00;;;;;;;;;;5073024;28;20440;-77
2021/08/15 05:25:19;;;;;;;35.57;26.10;;;;;;;;;;5071309;28;20441;-78
2021/08/15 05:27:46;;;;;;;35.40;23.13;;;;;;;;;;5072418;28;20436;-77
2021/08/15 05:30:15;;;;;;;36.83;23.07;;;;;;;;;;5072606;28;20456;-79
2021/08/15 05:32:43;;;;;;;40.47;24.10;;;;;;;;;;5072289;28;20930;-78
2021/08/15 05:35:10;;;;;;;39.40;25.47;;;;;;;;;;5072432;28;20926;-79
2021/08/15 05:37:39;;;;;;;38.40;25.13;;;;;;;;;;5072819;28;20522;-78
2021/08/15 05:40:08;;;;;;;36.80;24.63;;;;;;;;;;5072708;28;20505;-78
2021/08/15 05:42:35;;;;;;;31.13;22.97;;;;;;;;;;5072710;28;20794;-78
2021/08/15 05:45:02;;;;;;;40.47;23.50;;;;;;;;;;5072135;28;20444;-78
2021/08/15 05:47:31;;;;;;;37.77;24.10;;;;;;;;;;5072088;28;20942;-80
2021/08/15 05:49:58;;;;;;;32.50;24.33;;;;;;;;;;5072410;28;20448;-79
2021/08/15 05:52:26;;;;;;;39.07;24.00;;;;;;;;;;5072501;28;20447;-77
2021/08/15 05:54:54;;;;;;;33.40;23.90;;;;;;;;;;5071243;28;20449;-78
2021/08/15 05:57:21;;;;;;;37.00;25.70;;;;;;;;;;5075619;28;20441;-78
2021/08/15 05:59:48;;;;;;;32.90;23.90;;;;;;;;;;5075829;28;20479;-79
2021/08/15 06:02:15;;;;;;;34.30;25.50;;;;;;;;;;5076170;28;20449;-80
2021/08/15 06:04:44;;;;;;;35.80;23.67;;;;;;;;;;5076676;28;20450;-78
2021/08/15 06:07:13;;;;;;;35.30;24.70;;;;;;;;;;5075693;28;20437;-80
2021/08/15 06:09:43;;;;;;;34.37;23.23;;;;;;;;;;5075575;28;20464;-80
2021/08/15 06:12:10;;;;;;;31.80;23.37;;;;;;;;;;5076118;28;20447;-79
2021/08/15 06:14:37;;;;;;;34.10;22.73;;;;;;;;;;5075510;28;20441;-79
2021/08/15 06:17:05;;;;;;;33.73;23.00;;;;;;;;;;5075059;28;20445;-78
2021/08/15 06:19:32;;;;;;;41.60;23.93;;;;;;;;;;5075768;28;20984;-79
2021/08/15 06:22:01;;;;;;;44.10;24.13;;;;;;;;;;5075542;28;20450;-82
2021/08/15 06:24:28;;;;;;;31.30;21.20;;;;;;;;;;5075502;28;20949;-81
2021/08/15 06:26:55;;;;;;;33.83;23.13;;;;;;;;;;5074293;28;20448;-80
2021/08/15 06:29:23;;;;;;;37.17;24.73;;;;;;;;;;5075485;28;20722;-80
2021/08/15 06:31:50;;;;;;;30.27;23.03;;;;;;;;;;5075334;28;20974;-78
2021/08/15 06:34:17;;;;;;;26.33;22.27;;;;;;;;;;5075823;28;20429;-78
2021/08/15 06:36:44;;;;;;;39.03;24.60;;;;;;;;;;5075172;28;20447;-77
2021/08/15 06:39:13;;;;;;;31.47;24.10;;;;;;;;;;5075494;28;20442;-79
2021/08/15 06:41:40;;;;;;;27.57;23.37;;;;;;;;;;5075968;28;20451;-79
2021/08/15 06:44:08;;;;;;;34.60;22.80;;;;;;;;;;5074675;28;20540;-79
2021/08/15 06:46:35;;;;;;;26.70;21.80;;;;;;;;;;5075140;28;20432;-80
2021/08/15 06:49:02;;;;;;;32.50;23.33;;;;;;;;;;5075724;28;20446;-80
2021/08/15 06:51:29;;;;;;;35.03;25.00;;;;;;;;;;5075404;28;20864;-69
2021/08/15 06:53:57;;;;;;;33.07;23.40;;;;;;;;;;5075144;28;20467;-74
2021/08/15 06:56:25;;;;;;;30.63;22.00;;;;;;;;;;5072869;28;20450;-74
2021/08/15 06:58:52;;;;;;;31.60;22.77;;;;;;;;;;5075163;28;20478;-74
2021/08/15 07:01:20;;;;;;;35.60;22.60;;;;;;;;;;5075091;28;20490;-74
2021/08/15 07:03:48;;;;;;;37.30;23.67;;;;;;;;;;5075068;28;20446;-73
2021/08/15 07:06:15;;;;;;;31.70;23.37;;;;;;;;;;5075204;28;20442;-74
2021/08/15 07:08:42;;;;;;;37.70;23.23;;;;;;;;;;5074711;28;20442;-68
2021/08/15 07:11:09;;;;;;;36.37;23.17;;;;;;;;;;5074685;28;20442;-74
2021/08/15 07:13:38;;;;;;;36.20;23.43;;;;;;;;;;5074627;28;20445;-74
2021/08/15 07:16:05;;;;;;;31.47;22.97;;;;;;;;;;5074635;28;20438;-75
2021/08/15 07:18:33;;;;;;;31.83;23.93;;;;;;;;;;5074440;28;20628;-74
2021/08/15 07:21:02;;;;;;;35.80;24.80;;;;;;;;;;5074072;28;20998;-73
2021/08/15 07:23:29;;;;;;;30.10;22.33;;;;;;;;;;5074691;28;20458;-73
2021/08/15 07:25:57;;;;;;;35.47;23.93;;;;;;;;;;5074225;28;20448;-73
2021/08/15 07:28:24;;;;;;;32.40;24.87;;;;;;;;;;5073168;28;20434;-73
2021/08/15 07:30:52;;;;;;;33.87;23.40;;;;;;;;;;5074554;28;20476;-73
2021/08/15 07:33:20;;;;;;;32.87;21.50;;;;;;;;;;5074270;28;20809;-73
2021/08/15 07:35:48;;;;;;;28.90;22.20;;;;;;;;;;5074173;28;20438;-73
2021/08/15 07:38:15;;;;;;;29.63;21.80;;;;;;;;;;5074137;28;20447;-73
2021/08/15 07:40:42;;;;;;;29.77;22.20;;;;;;;;;;5074512;28;20526;-73
2021/08/15 07:43:09;;;;;;;26.50;20.87;;;;;;;;;;5074156;28;20444;-73
2021/08/15 07:45:37;;;;;;;31.03;23.23;;;;;;;;;;5074645;28;20441;-73
2021/08/15 07:48:05;;;;;;;31.60;22.20;;;;;;;;;;5073370;28;20644;-73
2021/08/15 07:50:36;;;;;;;28.27;20.07;;;;;;;;;;5074259;28;20542;-73
2021/08/15 07:53:15;;;;;;;31.00;20.37;;;;;;;;;;5074367;28;20441;-73
2021/08/15 07:55:43;;;;;;;28.10;19.30;;;;;;;;;;5074359;28;20525;-72
2021/08/15 07:58:10;;;;;;;29.90;19.80;;;;;;;;;;5072083;28;20465;-73
2021/08/15 08:00:37;;;;;;;30.43;21.17;;;;;;;;;;5073325;28;20493;-73
2021/08/15 08:03:06;;;;;;;29.00;21.07;;;;;;;;;;5074149;28;20468;-74
2021/08/15 08:05:33;;;;;;;28.00;18.87;;;;;;;;;;5074186;28;20469;-74
2021/08/15 08:08:00;;;;;;;32.77;21.37;;;;;;;;;;5073323;28;20440;-72
2021/08/15 08:10:27;;;;;;;29.17;19.47;;;;;;;;;;5073816;28;20450;-74
2021/08/15 08:12:55;;;;;;;30.97;19.20;;;;;;;;;;5073971;28;20989;-73
2021/08/15 08:15:22;;;;;;;25.53;18.13;;;;;;;;;;5073821;28;20446;-72
2021/08/15 08:17:49;;;;;;;27.97;18.43;;;;;;;;;;5072242;28;20477;-72
2021/08/15 08:20:20;;;;;;;27.03;17.87;;;;;;;;;;5073639;28;20473;-72
2021/08/15 08:22:48;;;;;;;29.33;17.57;;;;;;;;;;5073401;28;20457;-73
2021/08/15 08:25:15;;;;;;;27.23;16.50;;;;;;;;;;5074070;28;20447;-72
2021/08/15 08:27:42;;;;;;;24.67;16.87;;;;;;;;;;5071638;28;20441;-72
2021/08/15 08:30:10;;;;;;;24.37;18.77;;;;;;;;;;5071165;28;20458;-72
2021/08/15 08:32:37;;;;;;;21.20;17.20;;;;;;;;;;5073502;28;20453;-75
2021/08/15 08:35:05;;;;;;;24.80;16.00;;;;;;;;;;5073497;28;20436;-73
2021/08/15 08:37:33;;;;;;;24.10;15.20;;;;;;;;;;5072980;28;20988;-73
2021/08/15 08:40:00;;;;;;;21.87;15.27;;;;;;;;;;5073420;28;20488;-73
2021/08/15 08:42:29;;;;;;;19.40;12.83;;;;;;;;;;5073550;28;20442;-78
2021/08/15 08:45:00;;;;;;;18.63;13.50;;;;;;;;;;5073615;28;20569;-76
2021/08/15 08:47:28;;;;;;;19.57;13.30;;;;;;;;;;5073449;28;20458;-73
2021/08/15 08:49:56;;;;;;;18.20;14.70;;;;;;;;;;5072659;28;20932;-73
2021/08/15 08:52:25;;;;;;;18.27;13.67;;;;;;;;;;5073438;28;20444;-73
2021/08/15 08:54:54;;;;;;;19.30;13.83;;;;;;;;;;5072960;28;20460;-73
2021/08/15 08:57:21;;;;;;;17.20;12.70;;;;;;;;;;5072734;28;20785;-73
2021/08/15 08:59:48;;;;;;;17.43;13.13;;;;;;;;;;5071698;28;20445;-73
2021/08/15 09:02:15;;;;;;;22.23;12.87;;;;;;;;;;5072779;28;20450;-75
2021/08/15 09:04:43;;;;;;;14.13;11.77;;;;;;;;;;5072921;28;20446;-74
2021/08/15 09:07:11;;;;;;;20.33;11.50;;;;;;;;;;5073234;28;20490;-75
2021/08/15 09:09:39;;;;;;;14.17;10.90;;;;;;;;;;5073088;28;20539;-74
2021/08/15 09:12:08;;;;;;;18.63;11.43;;;;;;;;;;5073214;28;20506;-74
2021/08/15 09:14:35;;;;;;;13.70;11.23;;;;;;;;;;5073126;28;20452;-74
2021/08/15 09:17:03;;;;;;;15.63;10.43;;;;;;;;;;5072908;28;20539;-74
2021/08/15 09:19:32;;;;;;;19.47;11.50;;;;;;;;;;5073064;28;20611;-74
2021/08/15 09:22:11;;;;;;;15.87;10.33;;;;;;;;;;5073017;28;20522;-75
2021/08/15 09:24:45;;;;;;;18.87;11.13;;;;;;;;;;5073667;28;20425;-74
2021/08/15 09:27:18;;;;;;;18.83;12.80;;;;;;;;;;5073215;28;20461;-75
2021/08/15 09:29:55;;;;;;;16.73;8.93;;;;;;;;;;5072302;28;20444;-75
2021/08/15 09:32:26;;;;;;;17.47;9.10;;;;;;;;;;5076316;28;20466;-76
2021/08/15 09:34:58;;;;;;;13.80;9.90;;;;;;;;;;5076290;28;21092;-75
2021/08/15 09:37:26;;;;;;;10.43;7.33;;;;;;;;;;5077532;28;20847;-75
2021/08/15 09:39:53;;;;;;;16.20;8.37;;;;;;;;;;5076557;28;20531;-76
2021/08/15 09:42:39;;;;;;;14.27;7.30;;;;;;;;;;5076472;28;20484;-76
2021/08/15 09:45:07;;;;;;;13.03;7.20;;;;;;;;;;5076643;28;20490;-76
2021/08/15 09:47:34;;;;;;;15.90;7.10;;;;;;;;;;5076095;28;20440;-77
2021/08/15 09:50:16;;;;;;;9.80;7.60;;;;;;;;;;5076273;28;20791;-74
2021/08/15 09:52:43;;;;;;;7.40;6.07;;;;;;;;;;5076161;28;20475;-73
2021/08/15 09:55:10;;;;;;;9.70;7.00;;;;;;;;;;5075890;28;20451;-75
2021/08/15 09:57:39;;;;;;;9.83;7.00;;;;;;;;;;5076072;28;20441;-74
2021/08/15 10:00:08;;;;;;;7.90;6.97;;;;;;;;;;5074117;28;20451;-75
2021/08/15 10:02:35;;;;;;;8.87;7.10;;;;;;;;;;5075954;28;20433;-74
2021/08/15 10:05:02;;;;;;;15.37;6.90;;;;;;;;;;5076262;28;20441;-75
2021/08/15 10:07:32;;;;;;;11.00;7.10;;;;;;;;;;5076004;28;20442;-75
2021/08/15 10:09:59;;;;;;;16.93;7.80;;;;;;;;;;5076071;28;20448;-76
2021/08/15 10:12:26;;;;;;;14.57;7.70;;;;;;;;;;5076257;28;20502;-75
2021/08/15 10:14:55;;;;;;;13.37;7.37;;;;;;;;;;5075882;28;20438;-75
2021/08/15 10:17:23;;;;;;;9.40;5.80;;;;;;;;;;5075728;28;20445;-75
2021/08/15 10:19:54;;;;;;;14.07;6.87;;;;;;;;;;5076096;28;20430;-77
2021/08/15 10:22:23;;;;;;;21.43;6.90;;;;;;;;;;5075276;28;20470;-77
2021/08/15 10:24:52;;;;;;;12.70;6.23;;;;;;;;;;5074849;28;20456;-74
2021/08/15 10:27:40;;;;;;;10.37;5.17;;;;;;;;;;5075543;28;20443;-75
2021/08/15 10:30:29;;;;;;;7.30;5.27;;;;;;;;;;5070871;28;20534;-77
2021/08/15 10:33:12;;;;;;;8.93;5.30;;;;;;;;;;5075639;28;20453;-78
2021/08/15 10:35:39;;;;;;;8.43;4.87;;;;;;;;;;5075261;28;20946;-73
2021/08/15 10:38:07;;;;;;;12.57;5.17;;;;;;;;;;5074976;28;20446;-75
2021/08/15 10:40:48;;;;;;;8.63;5.13;;;;;;;;;;5074973;28;20448;-73
2021/08/15 10:43:16;;;;;;;6.83;4.60;;;;;;;;;;5075264;28;20435;-76
2021/08/15 10:45:45;;;;;;;5.67;4.50;;;;;;;;;;5075844;28;20433;-76
2021/08/15 10:48:25;;;;;;;9.80;4.93;;;;;;;;;;5075193;28;20459;-75
2021/08/15 10:50:53;;;;;;;8.87;5.10;;;;;;;;;;5074888;28;20437;-76
2021/08/15 10:53:35;;;;;;;9.03;5.77;;;;;;;;;;5073148;28;20441;-76
2021/08/15 10:56:04;;;;;;;8.80;4.30;;;;;;;;;;5073164;28;20538;-76
2021/08/15 10:58:38;;;;;;;6.00;4.93;;;;;;;;;;5075232;28;20516;-79
2021/08/15 11:01:08;;;;;;;7.33;4.90;;;;;;;;;;5074419;28;20487;-75
2021/08/15 11:03:53;;;;;;;8.10;4.63;;;;;;;;;;5074002;28;20985;-74
2021/08/15 11:06:36;;;;;;;7.30;4.87;;;;;;;;;;5075037;28;20478;-73
2021/08/15 11:09:05;;;;;;;8.70;5.30;;;;;;;;;;5072725;28;20508;-73
2021/08/15 11:11:34;;;;;;;6.60;4.90;;;;;;;;;;5074075;28;21026;-74
2021/08/15 11:14:20;;;;;;;7.47;4.60;;;;;;;;;;5074588;28;20463;-74
2021/08/15 11:16:50;;;;;;;5.43;3.80;;;;;;;;;;5074632;28;20802;-75
2021/08/15 11:19:30;;;;;;;4.50;3.73;;;;;;;;;;5074210;28;20485;-74
2021/08/15 11:22:18;;;;;;;7.17;4.20;;;;;;;;;;5074211;28;20565;-78
2021/08/15 11:24:49;;;;;;;5.77;4.00;;;;;;;;;;5068030;28;20957;-76
2021/08/15 11:27:18;;;;;;;5.73;4.50;;;;;;;;;;5074403;28;20422;-71
2021/08/15 11:29:46;;;;;;;4.90;3.83;;;;;;;;;;5074053;28;20451;-76
2021/08/15 11:32:16;;;;;;;6.53;4.10;;;;;;;;;;5074251;28;20457;-74
2021/08/15 11:34:50;;;;;;;6.03;4.50;;;;;;;;;;5073937;28;20927;-73
2021/08/15 11:37:19;;;;;;;6.90;4.47;;;;;;;;;;5073972;28;20839;-73
2021/08/15 11:39:47;;;;;;;5.70;4.20;;;;;;;;;;5073994;28;20438;-75
2021/08/15 11:42:17;;;;;;;5.20;4.23;;;;;;;;;;5073912;28;20652;-77
2021/08/15 11:44:55;;;;;;;9.00;4.17;;;;;;;;;;5073376;28;20953;-76
2021/08/15 11:47:25;;;;;;;8.33;4.60;;;;;;;;;;5074035;28;20438;-76
2021/08/15 11:49:52;;;;;;;6.03;4.20;;;;;;;;;;5073951;28;20444;-76
2021/08/15 11:52:21;;;;;;;7.93;5.00;;;;;;;;;;5073738;28;20798;-74
2021/08/15 11:54:48;;;;;;;7.10;4.40;;;;;;;;;;5071867;28;20510;-77
2021/08/15 11:57:16;;;;;;;7.17;4.87;;;;;;;;;;5073539;28;20450;-75
2021/08/15 11:59:44;;;;;;;7.87;4.57;;;;;;;;;;5073713;28;20440;-75
2021/08/15 12:02:16;;;;;;;6.07;4.00;;;;;;;;;;5073653;28;20575;-72
2021/08/15 12:04:46;;;;;;;8.67;4.83;;;;;;;;;;5073602;28;20531;-77
2021/08/15 12:07:13;;;;;;;9.23;4.63;;;;;;;;;;5074171;28;20457;-77
2021/08/15 12:09:40;;;;;;;6.20;4.43;;;;;;;;;;5073561;28;20539;-73
2021/08/15 12:12:13;;;;;;;13.03;4.70;;;;;;;;;;5073311;28;20448;-77
2021/08/15 12:14:41;;;;;;;4.90;3.80;;;;;;;;;;5074303;28;20440;-72
2021/08/15 12:17:09;;;;;;;10.10;4.97;;;;;;;;;;5073181;28;20527;-74
2021/08/15 12:19:37;;;;;;;7.07;4.50;;;;;;;;;;5073463;28;20958;-76
2021/08/15 12:22:16;;;;;;;5.60;4.20;;;;;;;;;;5073662;28;20476;-77
2021/08/15 12:24:46;;;;;;;6.13;4.10;;;;;;;;;;5072521;28;20467;-75
2021/08/15 12:27:13;;;;;;;6.20;4.63;;;;;;;;;;5073259;28;20437;-77
2021/08/15 12:29:41;;;;;;;6.53;4.57;;;;;;;;;;5073218;28;20456;-75
2021/08/15 12:32:10;;;;;;;15.93;5.30;;;;;;;;;;5073236;28;20522;-77
2021/08/15 12:34:39;;;;;;;4.70;4.13;;;;;;;;;;5073169;28;20445;-77
2021/08/15 12:37:14;;;;;;;3.80;3.20;;;;;;;;;;5073640;28;20716;-75
2021/08/15 12:39:45;;;;;;;5.30;3.10;;;;;;;;;;5073510;28;20480;-79
2021/08/15 12:42:20;;;;;;;4.00;3.60;;;;;;;;;;5073144;28;20482;-76
2021/08/15 12:44:48;;;;;;;6.07;3.87;;;;;;;;;;5073626;28;20508;-74
2021/08/15 12:47:16;;;;;;;5.57;3.20;;;;;;;;;;5071550;28;20447;-74
2021/08/15 12:49:44;;;;;;;5.70;3.93;;;;;;;;;;5072854;28;20803;-76
2021/08/15 12:52:27;;;;;;;8.40;4.83;;;;;;;;;;5072850;28;20462;-75
2021/08/15 12:55:08;;;;;;;9.03;3.97;;;;;;;;;;5072349;28;20440;-75
2021/08/15 12:57:36;;;;;;;4.30;3.47;;;;;;;;;;5071750;28;20975;-76
2021/08/15 13:00:04;;;;;;;6.03;4.00;;;;;;;;;;5072965;28;20443;-77
2021/08/15 13:02:31;;;;;;;5.00;3.70;;;;;;;;;;5073318;28;20561;-77
2021/08/15 13:04:59;;;;;;;6.07;3.50;;;;;;;;;;5074841;28;20442;-78
2021/08/15 13:07:29;;;;;;;8.10;4.00;;;;;;;;;;5077371;28;20460;-76
2021/08/15 13:09:57;;;;;;;7.03;4.70;;;;;;;;;;5076970;28;21017;-73
2021/08/15 13:12:25;;;;;;;7.00;4.00;;;;;;;;;;5076992;28;20454;-75
2021/08/15 13:14:52;;;;;;;7.03;4.00;;;;;;;;;;5077086;28;20433;-75
2021/08/15 13:17:20;;;;;;;4.57;3.40;;;;;;;;;;5076647;28;20442;-79
2021/08/15 13:19:48;;;;;;;7.07;4.80;;;;;;;;;;5076902;28;20813;-78
2021/08/15 13:22:15;;;;;;;5.13;3.80;;;;;;;;;;5076746;28;20481;-79
2021/08/15 13:24:45;;;;;;;5.23;3.30;;;;;;;;;;5076975;28;20435;-77
2021/08/15 13:27:13;;;;;;;4.20;3.30;;;;;;;;;;5074818;28;21017;-78
2021/08/15 13:29:40;;;;;;;6.60;3.43;;;;;;;;;;5076408;28;20499;-76
2021/08/15 13:32:07;;;;;;;4.57;3.10;;;;;;;;;;5076249;28;20902;-78
2021/08/15 13:34:35;;;;;;;5.50;3.50;;;;;;;;;;5076251;28;20454;-76
2021/08/15 13:37:02;;;;;;;4.47;3.77;;;;;;;;;;5076150;28;20451;-77
2021/08/15 13:39:29;;;;;;;6.10;3.30;;;;;;;;;;5076607;28;20438;-77
2021/08/15 13:41:58;;;;;;;4.20;3.47;;;;;;;;;;5076279;28;20516;-78
2021/08/15 13:44:25;;;;;;;6.17;3.50;;;;;;;;;;5076333;28;20528;-76
2021/08/15 13:46:52;;;;;;;3.83;3.30;;;;;;;;;;5075910;28;20524;-77
2021/08/15 13:49:19;;;;;;;3.87;3.30;;;;;;;;;;5076680;28;20444;-78
2021/08/15 13:51:46;;;;;;;6.03;4.50;;;;;;;;;;5075562;28;20455;-78
2021/08/15 13:54:13;;;;;;;5.93;3.70;;;;;;;;;;5075573;28;20445;-75
2021/08/15 13:56:41;;;;;;;3.90;3.23;;;;;;;;;;5074856;28;20897;-74
2021/08/15 13:59:09;;;;;;;4.53;3.17;;;;;;;;;;5076069;28;20534;-75
2021/08/15 14:01:36;;;;;;;3.80;3.40;;;;;;;;;;5076027;28;20438;-79
2021/08/15 14:04:04;;;;;;;4.90;3.67;;;;;;;;;;5075689;28;20542;-78
2021/08/15 14:06:31;;;;;;;4.20;3.30;;;;;;;;;;5077857;28;20515;-78
2021/08/15 14:08:58;;;;;;;8.50;3.07;;;;;;;;;;5075754;28;20446;-78
2021/08/15 14:11:25;;;;;;;4.70;3.10;;;;;;;;;;5075133;28;20450;-77
2021/08/15 14:13:53;;;;;;;3.67;3.30;;;;;;;;;;5075809;28;20447;-77
2021/08/15 14:16:21;;;;;;;5.50;2.73;;;;;;;;;;5074304;28;20931;-78
2021/08/15 14:18:48;;;;;;;8.20;3.63;;;;;;;;;;5075130;28;20472;-78
2021/08/15 14:21:15;;;;;;;6.30;3.30;;;;;;;;;;5075446;28;20423;-78
2021/08/15 14:23:43;;;;;;;3.80;3.30;;;;;;;;;;5074945;28;20473;-76
2021/08/15 14:26:10;;;;;;;4.57;3.60;;;;;;;;;;5075284;28;20486;-80
2021/08/15 14:28:38;;;;;;;6.00;3.80;;;;;;;;;;5075824;28;20450;-78
2021/08/15 14:31:05;;;;;;;4.60;3.60;;;;;;;;;;5076130;28;20448;-77
2021/08/15 14:33:33;;;;;;;4.10;3.17;;;;;;;;;;5075491;28;20442;-76